Time;durP1;ratioP1;P1;durP2;ratioP2;P2;SDS_P1;SDS_P2;PMS_P1;PMS_P2;Temp;Humidity;BMP_temperature;BMP_pressure;BME280_temperature;BME280_humidity;BME280_pressure;Samples;Min_cycle;Max_cycle;Signal;HPM_P1;HPM_P2
2022/02/06 00:00:45;;;;;;;0.68;0.60;;;;;;;;;;1854385;76;26306;-37
2022/02/06 00:03:14;;;;;;;0.50;0.50;;;;;;;;;;1859253;76;26301;-35
2022/02/06 00:05:41;;;;;;;0.57;0.57;;;;;;;;;;1847598;76;26256;-38
2022/02/06 00:08:11;;;;;;;0.60;0.60;;;;;;;;;;1864262;76;26262;-38
2022/02/06 00:10:38;;;;;;;0.40;0.40;;;;;;;;;;1852343;76;26321;-36
2022/02/06 00:13:05;;;;;;;0.50;0.50;;;;;;;;;;1855478;76;26326;-36
2022/02/06 00:15:33;;;;;;;1.00;0.37;;;;;;;;;;1849088;76;25628;-37
2022/02/06 00:18:01;;;;;;;0.60;0.60;;;;;;;;;;1868656;76;26336;-37
2022/02/06 00:20:47;;;;;;;0.30;0.28;;;;;;;;;;1851792;76;26373;-36
2022/02/06 00:23:08;;;;;;;0.30;0.30;;;;;;;;;;1867436;76;25290;-36
2022/02/06 00:30:50;;;;;;;0.60;0.50;;;;;;;;;;1853465;76;26366;-36
2022/02/06 00:33:19;;;;;;;0.50;0.50;;;;;;;;;;1852695;76;26312;-37
2022/02/06 00:43:26;;;;;;;0.55;0.53;;;;;;;;;;1834366;76;26270;-38
2022/02/06 00:45:54;;;;;;;0.30;0.30;;;;;;;;;;1858078;76;26367;-38
2022/02/06 00:48:25;;;;;;;0.60;0.42;;;;;;;;;;1871149;76;26291;-37
2022/02/06 00:51:02;;;;;;;0.40;0.40;;;;;;;;;;1881019;76;26417;-36
2022/02/06 00:53:20;;;;;;;0.50;0.50;;;;;;;;;;1867854;76;26327;-36
2022/02/06 00:55:47;;;;;;;1.22;0.53;;;;;;;;;;1867419;76;26431;-36
2022/02/06 00:58:14;;;;;;;0.30;0.30;;;;;;;;;;1872625;76;26220;-37
2022/02/06 01:00:42;;;;;;;0.62;0.57;;;;;;;;;;1867238;76;26724;-36
2022/02/06 01:03:09;;;;;;;1.05;0.60;;;;;;;;;;1865141;76;26266;-38
2022/02/06 01:05:36;;;;;;;0.60;0.60;;;;;;;;;;1870507;76;26282;-37
2022/02/06 01:08:04;;;;;;;1.07;0.40;;;;;;;;;;1867136;76;26290;-36
2022/02/06 01:10:31;;;;;;;0.47;0.40;;;;;;;;;;1870510;76;25261;-36
2022/02/06 01:13:12;;;;;;;0.70;0.50;;;;;;;;;;1871799;76;25276;-36
2022/02/06 01:15:34;;;;;;;0.40;0.40;;;;;;;;;;1857309;76;26323;-38
2022/02/06 01:18:04;;;;;;;0.53;0.53;;;;;;;;;;1854140;76;26340;-40
2022/02/06 01:20:34;;;;;;;0.50;0.30;;;;;;;;;;1848491;76;26345;-36
2022/02/06 01:23:04;;;;;;;0.35;0.35;;;;;;;;;;1858292;76;26921;-37
2022/02/06 01:25:31;;;;;;;0.40;0.40;;;;;;;;;;1856179;76;25360;-39
2022/02/06 01:28:01;;;;;;;0.30;0.30;;;;;;;;;;1855209;76;26799;-37
2022/02/06 01:30:40;;;;;;;0.50;0.50;;;;;;;;;;1868057;76;26637;-36
2022/02/06 01:33:02;;;;;;;0.40;0.40;;;;;;;;;;1881156;76;26400;-37
2022/02/06 01:35:39;;;;;;;0.35;0.35;;;;;;;;;;1856135;76;26371;-36
2022/02/06 01:40:40;;;;;;;0.60;0.40;;;;;;;;;;1870465;76;25246;-36
2022/02/06 01:43:03;;;;;;;0.60;0.60;;;;;;;;;;1857342;76;26348;-36
2022/02/06 01:45:39;;;;;;;0.50;0.50;;;;;;;;;;1870533;76;26798;-38
2022/02/06 02:02:14;;;;;;;0.30;0.30;;;;;;;;;;1867087;76;26798;-37
2022/02/06 02:20:17;;;;;;;1.55;0.42;;;;;;;;;;1811452;76;25800;-36
2022/02/06 02:25:46;;;;;;;1.05;0.40;;;;;;;;;;1876936;76;26332;-36
2022/02/06 02:44:57;;;;;;;1.55;0.40;;;;;;;;;;1861276;76;26364;-37
2022/02/06 02:46:37;;;;;;;0.40;0.40;;;;;;;;;;1849657;76;26289;-37
2022/02/06 02:49:01;;;;;;;0.30;0.30;;;;;;;;;;1873339;76;26307;-37
2022/02/06 02:51:34;;;;;;;0.55;0.30;;;;;;;;;;1871567;76;26330;-37
2022/02/06 02:54:03;;;;;;;0.40;0.40;;;;;;;;;;1859312;76;26264;-37
2022/02/06 02:56:42;;;;;;;0.57;0.50;;;;;;;;;;1871219;76;25993;-36
2022/02/06 03:01:30;;;;;;;1.12;0.30;;;;;;;;;;1868056;76;26437;-37
2022/02/06 03:03:56;;;;;;;0.50;0.42;;;;;;;;;;1867834;76;26278;-38
2022/02/06 03:06:23;;;;;;;0.45;0.45;;;;;;;;;;1864224;76;26258;-36
2022/02/06 03:08:52;;;;;;;0.40;0.40;;;;;;;;;;1868822;76;26212;-38
2022/02/06 03:11:19;;;;;;;0.50;0.50;;;;;;;;;;1870359;76;26401;-38
2022/02/06 03:16:27;;;;;;;0.45;0.45;;;;;;;;;;1860307;76;26287;-36
2022/02/06 03:21:29;;;;;;;0.30;0.30;;;;;;;;;;1870345;76;25856;-41
2022/02/06 03:23:58;;;;;;;0.30;0.30;;;;;;;;;;1876464;76;26623;-37
2022/02/06 03:26:26;;;;;;;0.40;0.40;;;;;;;;;;1851344;76;26334;-37
2022/02/06 03:28:56;;;;;;;0.30;0.30;;;;;;;;;;1859473;76;26823;-38
2022/02/06 03:31:24;;;;;;;0.37;0.30;;;;;;;;;;1853919;76;26326;-37
2022/02/06 03:33:51;;;;;;;0.35;0.35;;;;;;;;;;1857940;76;26745;-38
2022/02/06 03:36:19;;;;;;;0.20;0.20;;;;;;;;;;1869058;76;26345;-38
2022/02/06 03:38:51;;;;;;;0.75;0.37;;;;;;;;;;1853590;76;26682;-37
2022/02/06 03:41:17;;;;;;;0.40;0.40;;;;;;;;;;1848438;76;26862;-37
2022/02/06 03:43:54;;;;;;;0.35;0.20;;;;;;;;;;1863159;76;26725;-37
2022/02/06 03:46:29;;;;;;;0.78;0.30;;;;;;;;;;1871234;76;26381;-36
2022/02/06 03:49:05;;;;;;;0.17;0.17;;;;;;;;;;1853527;76;26360;-39
2022/02/06 03:51:29;;;;;;;0.30;0.30;;;;;;;;;;1857475;76;26886;-36
2022/02/06 03:53:52;;;;;;;0.25;0.25;;;;;;;;;;1855208;76;26367;-38
2022/02/06 03:56:21;;;;;;;0.30;0.30;;;;;;;;;;1855665;76;26764;-38
2022/02/06 03:58:48;;;;;;;0.40;0.40;;;;;;;;;;1857621;76;26321;-38
2022/02/06 04:01:16;;;;;;;0.20;0.20;;;;;;;;;;1857653;76;26627;-37
2022/02/06 04:03:43;;;;;;;0.30;0.30;;;;;;;;;;1857456;76;26297;-36
2022/02/06 04:06:11;;;;;;;1.25;0.30;;;;;;;;;;1840496;76;26266;-36
2022/02/06 04:08:40;;;;;;;0.30;0.30;;;;;;;;;;1853215;76;26309;-36
2022/02/06 04:11:12;;;;;;;0.50;0.30;;;;;;;;;;1867321;76;26302;-37
2022/02/06 04:13:42;;;;;;;0.23;0.23;;;;;;;;;;1847933;76;26832;-37
2022/02/06 04:16:12;;;;;;;0.30;0.30;;;;;;;;;;1854357;76;25723;-38
2022/02/06 04:18:49;;;;;;;0.30;0.30;;;;;;;;;;1851826;76;26416;-36
2022/02/06 04:21:06;;;;;;;1.65;0.20;;;;;;;;;;1863561;76;26368;-36
2022/02/06 04:23:33;;;;;;;0.40;0.40;;;;;;;;;;1856684;76;26215;-37
2022/02/06 04:26:01;;;;;;;0.30;0.30;;;;;;;;;;1849703;76;26219;-37
2022/02/06 04:28:28;;;;;;;0.20;0.20;;;;;;;;;;1859756;76;26361;-36
2022/02/06 04:30:55;;;;;;;3.55;0.42;;;;;;;;;;1854818;76;26345;-36
2022/02/06 04:33:22;;;;;;;0.28;0.23;;;;;;;;;;1852588;76;26215;-36
2022/02/06 04:35:53;;;;;;;0.20;0.20;;;;;;;;;;1847381;76;26372;-37
2022/02/06 04:38:48;;;;;;;0.20;0.20;;;;;;;;;;1857372;76;26400;-36
2022/02/06 04:41:25;;;;;;;0.23;0.20;;;;;;;;;;1849900;76;26696;-36
2022/02/06 04:44:01;;;;;;;0.23;0.23;;;;;;;;;;1842514;76;26876;-38
2022/02/06 04:46:53;;;;;;;0.20;0.20;;;;;;;;;;1846044;76;26276;-38
2022/02/06 04:49:10;;;;;;;0.20;0.20;;;;;;;;;;1834424;76;26332;-36
2022/02/06 04:54:34;;;;;;;0.20;0.20;;;;;;;;;;1852559;76;26353;-40
2022/02/06 05:11:09;;;;;;;0.33;0.30;;;;;;;;;;1849244;76;26297;-37
2022/02/06 05:19:06;;;;;;;0.23;0.23;;;;;;;;;;1852191;76;26831;-37
2022/02/06 05:28:51;;;;;;;0.45;0.23;;;;;;;;;;1848042;77;26275;-37
2022/02/06 05:31:30;;;;;;;0.28;0.20;;;;;;;;;;1822028;77;26774;-37
2022/02/06 05:33:46;;;;;;;0.10;0.10;;;;;;;;;;1827947;77;26711;-37
2022/02/06 05:36:13;;;;;;;0.25;0.20;;;;;;;;;;1820434;77;26347;-36
2022/02/06 05:38:40;;;;;;;0.10;0.10;;;;;;;;;;1826791;77;26787;-36
2022/02/06 05:41:07;;;;;;;0.08;0.08;;;;;;;;;;1825015;77;26655;-36
2022/02/06 05:43:36;;;;;;;0.10;0.10;;;;;;;;;;1824652;77;26394;-36
2022/02/06 05:46:04;;;;;;;0.15;0.15;;;;;;;;;;1824201;77;25255;-36
2022/02/06 05:48:32;;;;;;;0.13;0.13;;;;;;;;;;1831805;77;25304;-36
2022/02/06 05:50:59;;;;;;;0.20;0.20;;;;;;;;;;1824675;77;26249;-37
2022/02/06 05:53:27;;;;;;;0.17;0.17;;;;;;;;;;1828132;77;27653;-38
2022/02/06 05:55:54;;;;;;;0.17;0.17;;;;;;;;;;1819180;77;26378;-37
2022/02/06 05:58:21;;;;;;;0.20;0.20;;;;;;;;;;1835155;77;26640;-39
2022/02/06 06:00:48;;;;;;;0.33;0.20;;;;;;;;;;1824756;77;26352;-38
2022/02/06 06:03:16;;;;;;;0.10;0.10;;;;;;;;;;1823248;77;26721;-38
2022/02/06 06:05:43;;;;;;;0.10;0.10;;;;;;;;;;1820591;77;26800;-37
2022/02/06 06:08:10;;;;;;;0.10;0.10;;;;;;;;;;1822876;77;27117;-38
2022/02/06 06:10:38;;;;;;;0.10;0.10;;;;;;;;;;1812402;77;26289;-38
2022/02/06 06:13:05;;;;;;;0.10;0.10;;;;;;;;;;1826499;77;26826;-37
2022/02/06 06:15:32;;;;;;;0.20;0.20;;;;;;;;;;1833030;77;26300;-37
2022/02/06 06:18:04;;;;;;;0.10;0.10;;;;;;;;;;1825350;77;25191;-37
2022/02/06 06:20:30;;;;;;;0.10;0.10;;;;;;;;;;1833257;77;26359;-36
2022/02/06 06:22:58;;;;;;;0.10;0.10;;;;;;;;;;1831278;77;26284;-38
2022/02/06 06:25:34;;;;;;;0.08;0.08;;;;;;;;;;1834640;77;26663;-38
2022/02/06 06:27:55;;;;;;;0.00;0.00;;;;;;;;;;1833121;77;26265;-36
2022/02/06 06:30:24;;;;;;;0.10;0.10;;;;;;;;;;1873689;76;26368;-36
2022/02/06 06:32:51;;;;;;;0.10;0.10;;;;;;;;;;1858896;76;26238;-38
2022/02/06 06:35:18;;;;;;;0.30;0.20;;;;;;;;;;1858812;76;26373;-37
2022/02/06 06:37:47;;;;;;;0.20;0.20;;;;;;;;;;1851929;76;26335;-36
2022/02/06 06:40:15;;;;;;;0.05;0.05;;;;;;;;;;1850155;76;26828;-36
2022/02/06 06:42:42;;;;;;;0.03;0.03;;;;;;;;;;1854886;76;26251;-36
2022/02/06 06:45:10;;;;;;;0.40;0.20;;;;;;;;;;1857981;76;26280;-38
2022/02/06 06:47:37;;;;;;;0.10;0.10;;;;;;;;;;1856106;76;26336;-37
2022/02/06 06:50:05;;;;;;;0.10;0.10;;;;;;;;;;1851229;76;26239;-37
2022/02/06 06:52:32;;;;;;;0.33;0.30;;;;;;;;;;1860269;76;26317;-36
2022/02/06 06:55:03;;;;;;;0.13;0.13;;;;;;;;;;1859525;76;26742;-37
2022/02/06 06:57:38;;;;;;;0.10;0.10;;;;;;;;;;1855779;76;26282;-36
2022/02/06 07:02:35;;;;;;;0.45;0.20;;;;;;;;;;1855765;76;26277;-37
2022/02/06 07:05:04;;;;;;;0.00;0.00;;;;;;;;;;1858039;76;26464;-37
2022/02/06 07:07:33;;;;;;;0.62;0.15;;;;;;;;;;1855131;76;26339;-37
2022/02/06 07:10:01;;;;;;;0.10;0.10;;;;;;;;;;1855924;77;25225;-37
2022/02/06 07:12:29;;;;;;;0.00;0.00;;;;;;;;;;1855192;76;26340;-38
2022/02/06 07:14:56;;;;;;;0.30;0.10;;;;;;;;;;1857262;76;26383;-38
2022/02/06 07:17:23;;;;;;;0.08;0.08;;;;;;;;;;1853494;76;26819;-37
2022/02/06 07:19:51;;;;;;;0.20;0.20;;;;;;;;;;1825060;71;26427;-36
2022/02/06 07:22:19;;;;;;;0.10;0.10;;;;;;;;;;1858499;75;26264;-37
2022/02/06 07:24:48;;;;;;;0.25;0.10;;;;;;;;;;1839994;76;25683;-38
2022/02/06 07:27:33;;;;;;;0.10;0.10;;;;;;;;;;1822065;77;26302;-36
2022/02/06 07:29:56;;;;;;;0.53;0.20;;;;;;;;;;1842344;75;26350;-37
2022/02/06 07:32:23;;;;;;;0.30;0.20;;;;;;;;;;1842946;76;26784;-37
2022/02/06 07:34:51;;;;;;;0.25;0.20;;;;;;;;;;1845245;76;26817;-36
2022/02/06 07:37:18;;;;;;;0.13;0.13;;;;;;;;;;1846075;76;26256;-36
2022/02/06 07:39:46;;;;;;;2.10;0.20;;;;;;;;;;1850529;75;26342;-37
2022/02/06 07:42:13;;;;;;;0.40;0.20;;;;;;;;;;1851804;75;26763;-37
2022/02/06 07:44:46;;;;;;;0.20;0.17;;;;;;;;;;1855528;75;26394;-36
2022/02/06 07:47:18;;;;;;;0.10;0.10;;;;;;;;;;1853340;76;26315;-38
2022/02/06 07:49:47;;;;;;;0.13;0.13;;;;;;;;;;1852233;75;26265;-36
2022/02/06 07:52:15;;;;;;;1.10;0.10;;;;;;;;;;1849267;76;26340;-37
2022/02/06 07:54:42;;;;;;;0.37;0.23;;;;;;;;;;1849211;75;26355;-36
2022/02/06 07:57:10;;;;;;;0.10;0.10;;;;;;;;;;1857579;75;26216;-38
2022/02/06 07:59:37;;;;;;;0.57;0.20;;;;;;;;;;1847938;77;26323;-36
2022/02/06 08:02:06;;;;;;;0.68;0.20;;;;;;;;;;1852666;76;26244;-37
2022/02/06 08:04:34;;;;;;;0.53;0.10;;;;;;;;;;1840960;75;25277;-37
2022/02/06 08:07:03;;;;;;;0.13;0.13;;;;;;;;;;1839801;76;26303;-38
2022/02/06 08:09:51;;;;;;;0.30;0.30;;;;;;;;;;1843216;76;26231;-36
2022/02/06 08:12:15;;;;;;;0.45;0.30;;;;;;;;;;1836205;75;26276;-35
2022/02/06 08:14:51;;;;;;;0.50;0.20;;;;;;;;;;1837633;76;26302;-36
2022/02/06 08:17:19;;;;;;;0.85;0.30;;;;;;;;;;1836523;75;26338;-37
2022/02/06 08:19:47;;;;;;;2.08;0.30;;;;;;;;;;1842962;75;26330;-36
2022/02/06 08:22:18;;;;;;;1.25;0.30;;;;;;;;;;1849128;75;26937;-38
2022/02/06 08:24:45;;;;;;;0.70;0.23;;;;;;;;;;1848630;76;26809;-37
2022/02/06 08:27:13;;;;;;;0.25;0.25;;;;;;;;;;1859395;75;26233;-36
2022/02/06 08:29:43;;;;;;;0.30;0.30;;;;;;;;;;1848186;76;26286;-36
2022/02/06 08:32:09;;;;;;;0.37;0.37;;;;;;;;;;1859809;76;26389;-37
2022/02/06 08:34:37;;;;;;;0.40;0.40;;;;;;;;;;1862618;76;26771;-36
2022/02/06 08:37:05;;;;;;;0.50;0.50;;;;;;;;;;1852815;76;26301;-37
2022/02/06 08:39:34;;;;;;;1.05;0.50;;;;;;;;;;1869228;76;26232;-36
2022/02/06 08:42:02;;;;;;;0.37;0.30;;;;;;;;;;1866083;76;26390;-37
2022/02/06 08:44:29;;;;;;;0.40;0.40;;;;;;;;;;1849312;75;26283;-38
2022/02/06 08:46:56;;;;;;;0.50;0.50;;;;;;;;;;1854310;75;26271;-35
2022/02/06 08:49:24;;;;;;;1.82;0.40;;;;;;;;;;1857343;76;26342;-36
2022/02/06 08:51:52;;;;;;;0.42;0.42;;;;;;;;;;1845013;76;26333;-36
2022/02/06 08:54:28;;;;;;;0.50;0.50;;;;;;;;;;1862291;75;26268;-36
2022/02/06 08:56:49;;;;;;;0.50;0.50;;;;;;;;;;1850991;75;26973;-36
2022/02/06 08:59:16;;;;;;;0.72;0.60;;;;;;;;;;1850699;76;26287;-36
2022/02/06 09:01:44;;;;;;;1.65;0.50;;;;;;;;;;1860834;76;26270;-36
2022/02/06 09:04:11;;;;;;;0.40;0.40;;;;;;;;;;1849982;76;26329;-36
2022/02/06 09:06:39;;;;;;;1.55;0.50;;;;;;;;;;1863783;76;26292;-36
2022/02/06 09:09:06;;;;;;;0.40;0.40;;;;;;;;;;1863314;75;26825;-38
2022/02/06 09:11:33;;;;;;;0.60;0.60;;;;;;;;;;1858799;75;26236;-36
2022/02/06 09:14:00;;;;;;;0.40;0.40;;;;;;;;;;1867425;75;26323;-36
2022/02/06 09:16:28;;;;;;;1.15;0.42;;;;;;;;;;1855898;76;26278;-37
2022/02/06 09:18:55;;;;;;;1.32;0.45;;;;;;;;;;1852912;76;26254;-36
2022/02/06 09:21:23;;;;;;;1.55;0.50;;;;;;;;;;1858598;75;26789;-35
2022/02/06 09:23:51;;;;;;;2.00;0.47;;;;;;;;;;1857361;75;26852;-36
2022/02/06 09:26:21;;;;;;;0.42;0.37;;;;;;;;;;1845106;75;26276;-37
2022/02/06 09:28:48;;;;;;;0.98;0.60;;;;;;;;;;1855473;76;26321;-36
2022/02/06 09:31:15;;;;;;;1.52;0.50;;;;;;;;;;1842231;75;26258;-36
2022/02/06 09:36:09;;;;;;;0.50;0.50;;;;;;;;;;1850424;76;26268;-37
2022/02/06 09:38:37;;;;;;;3.83;0.72;;;;;;;;;;1862143;75;26342;-38
2022/02/06 09:41:04;;;;;;;1.02;0.50;;;;;;;;;;1862303;76;26380;-39
2022/02/06 09:43:33;;;;;;;1.60;0.68;;;;;;;;;;1860819;75;26232;-37
2022/02/06 09:46:01;;;;;;;4.55;0.70;;;;;;;;;;1860807;76;26268;-38
2022/02/06 09:48:33;;;;;;;1.90;0.57;;;;;;;;;;1862028;76;26290;-36
2022/02/06 09:51:00;;;;;;;4.85;0.65;;;;;;;;;;1857836;75;26204;-37
2022/02/06 09:53:31;;;;;;;1.05;0.60;;;;;;;;;;1866871;76;26252;-39
2022/02/06 09:56:09;;;;;;;5.42;0.75;;;;;;;;;;1863938;75;26291;-36
2022/02/06 10:01:09;;;;;;;10.08;1.00;;;;;;;;;;1862044;76;25216;-37
2022/02/06 10:03:41;;;;;;;3.77;1.20;;;;;;;;;;1865505;76;26260;-36
2022/02/06 10:06:09;;;;;;;9.85;0.93;;;;;;;;;;1852519;75;26338;-37
2022/02/06 10:08:38;;;;;;;12.78;1.17;;;;;;;;;;1868292;76;26259;-36
2022/02/06 10:11:10;;;;;;;7.62;1.30;;;;;;;;;;1867023;76;26433;-39
2022/02/06 10:13:39;;;;;;;6.12;0.90;;;;;;;;;;1841122;77;26784;-38
2022/02/06 10:16:08;;;;;;;5.62;1.15;;;;;;;;;;1848446;76;26260;-37
2022/02/06 10:18:36;;;;;;;3.83;1.10;;;;;;;;;;1859319;75;26341;-38
2022/02/06 10:21:05;;;;;;;6.12;1.12;;;;;;;;;;1858026;75;26370;-37
2022/02/06 10:23:43;;;;;;;3.27;1.07;;;;;;;;;;1859164;75;26373;-37
2022/02/06 10:26:08;;;;;;;2.90;0.95;;;;;;;;;;1853787;75;26715;-37
2022/02/06 10:28:44;;;;;;;4.78;1.27;;;;;;;;;;1841664;75;26276;-36
2022/02/06 10:31:09;;;;;;;1.17;0.90;;;;;;;;;;1827865;76;26216;-36
2022/02/06 10:33:43;;;;;;;5.22;1.00;;;;;;;;;;1851633;75;26702;-36
2022/02/06 10:36:11;;;;;;;8.00;1.10;;;;;;;;;;1858997;75;26315;-37
2022/02/06 10:38:39;;;;;;;1.27;0.82;;;;;;;;;;1845607;75;26311;-36
2022/02/06 10:41:13;;;;;;;1.50;0.95;;;;;;;;;;1858546;75;26326;-36
2022/02/06 10:43:42;;;;;;;7.17;1.20;;;;;;;;;;1863142;75;26377;-38
2022/02/06 10:46:11;;;;;;;6.03;1.00;;;;;;;;;;1857705;75;26319;-37
2022/02/06 10:48:45;;;;;;;2.75;0.62;;;;;;;;;;1845646;75;26248;-38
2022/02/06 10:51:31;;;;;;;10.68;1.22;;;;;;;;;;1839531;76;26270;-38
2022/02/06 10:53:59;;;;;;;3.25;1.30;;;;;;;;;;1849367;75;25713;-36
2022/02/06 10:56:26;;;;;;;2.12;0.85;;;;;;;;;;1852894;75;26354;-37
2022/02/06 10:59:00;;;;;;;5.97;1.10;;;;;;;;;;1854339;75;26284;-38
2022/02/06 11:01:30;;;;;;;2.45;0.72;;;;;;;;;;1847836;76;26353;-39
2022/02/06 11:03:58;;;;;;;1.60;0.98;;;;;;;;;;1850904;75;26276;-37
2022/02/06 11:06:53;;;;;;;3.75;0.75;;;;;;;;;;1849509;75;26599;-37
2022/02/06 11:09:24;;;;;;;1.98;0.80;;;;;;;;;;1854134;76;26764;-36
2022/02/06 11:11:51;;;;;;;2.52;0.80;;;;;;;;;;1860874;75;26253;-37
2022/02/06 11:14:25;;;;;;;1.17;0.65;;;;;;;;;;1857634;75;26308;-38
2022/02/06 11:16:53;;;;;;;2.65;0.90;;;;;;;;;;1845046;75;26264;-36
2022/02/06 11:19:20;;;;;;;1.70;0.80;;;;;;;;;;1850813;75;26617;-36
2022/02/06 11:21:49;;;;;;;2.35;1.00;;;;;;;;;;1862431;75;25815;-36
2022/02/06 11:24:20;;;;;;;1.05;0.70;;;;;;;;;;1854940;76;26788;-37
2022/02/06 11:26:48;;;;;;;2.65;0.80;;;;;;;;;;1876957;75;26260;-36
2022/02/06 11:29:15;;;;;;;3.45;0.90;;;;;;;;;;1858106;75;26326;-36
2022/02/06 11:31:43;;;;;;;3.17;0.90;;;;;;;;;;1864394;75;26343;-39
2022/02/06 11:34:15;;;;;;;1.67;0.80;;;;;;;;;;1855116;75;25246;-38
2022/02/06 11:45:15;;;;;;;1.07;0.88;;;;;;;;;;1857608;75;26329;-37
2022/02/06 11:47:53;;;;;;;0.95;0.75;;;;;;;;;;1843675;75;26335;-37
2022/02/06 11:50:21;;;;;;;3.15;0.70;;;;;;;;;;1855361;75;26287;-37
2022/02/06 11:52:56;;;;;;;0.70;0.70;;;;;;;;;;1853047;75;26303;-38
2022/02/06 11:55:36;;;;;;;0.55;0.55;;;;;;;;;;1855031;75;26350;-38
2022/02/06 11:58:24;;;;;;;0.60;0.60;;;;;;;;;;1850304;76;26719;-39
2022/02/06 12:01:07;;;;;;;0.60;0.60;;;;;;;;;;1854079;75;26608;-39
2022/02/06 12:03:53;;;;;;;3.35;0.70;;;;;;;;;;1857533;75;26288;-38
2022/02/06 12:06:24;;;;;;;3.30;0.72;;;;;;;;;;1851484;75;26646;-37
2022/02/06 12:09:01;;;;;;;0.53;0.53;;;;;;;;;;1845299;76;26271;-37
2022/02/06 12:11:29;;;;;;;0.75;0.70;;;;;;;;;;1851962;75;26268;-39
2022/02/06 12:14:28;;;;;;;1.85;0.60;;;;;;;;;;1853586;75;26412;-37
2022/02/06 12:17:18;;;;;;;1.25;0.70;;;;;;;;;;1843205;75;26359;-38
2022/02/06 12:19:39;;;;;;;1.87;0.80;;;;;;;;;;1850092;75;26681;-38
2022/02/06 12:22:24;;;;;;;0.88;0.70;;;;;;;;;;1853268;75;26409;-39
2022/02/06 12:24:52;;;;;;;0.55;0.55;;;;;;;;;;1843414;75;25386;-38
2022/02/06 12:27:21;;;;;;;0.72;0.57;;;;;;;;;;1850659;75;26765;-37
2022/02/06 12:29:50;;;;;;;1.52;0.60;;;;;;;;;;1844693;75;26381;-38
2022/02/06 12:32:34;;;;;;;4.05;0.60;;;;;;;;;;1843314;76;26225;-37
2022/02/06 12:37:50;;;;;;;1.02;0.62;;;;;;;;;;1852722;75;26368;-38
2022/02/06 12:40:18;;;;;;;0.60;0.60;;;;;;;;;;1845197;76;26261;-38
2022/02/06 12:42:47;;;;;;;1.10;0.50;;;;;;;;;;1846115;75;26330;-38
2022/02/06 12:45:20;;;;;;;2.17;0.40;;;;;;;;;;1845155;76;26318;-38
2022/02/06 12:47:48;;;;;;;0.57;0.50;;;;;;;;;;1851987;76;25966;-39
2022/02/06 12:50:17;;;;;;;0.98;0.60;;;;;;;;;;1848666;76;26267;-38
2022/02/06 12:52:45;;;;;;;1.12;0.60;;;;;;;;;;1850088;75;26699;-38
2022/02/06 12:55:12;;;;;;;0.82;0.60;;;;;;;;;;1852966;75;26279;-38
2022/02/06 12:57:44;;;;;;;0.80;0.70;;;;;;;;;;1848147;76;25694;-37
2022/02/06 13:00:25;;;;;;;0.98;0.80;;;;;;;;;;1854011;75;26728;-39
2022/02/06 13:02:54;;;;;;;2.00;0.80;;;;;;;;;;1847809;76;25728;-36
2022/02/06 13:05:21;;;;;;;2.05;0.70;;;;;;;;;;1850116;76;26263;-38
2022/02/06 13:07:50;;;;;;;1.12;0.80;;;;;;;;;;1850232;76;26326;-36
2022/02/06 13:10:17;;;;;;;1.57;1.00;;;;;;;;;;1845384;76;26236;-38
2022/02/06 13:12:53;;;;;;;1.40;1.30;;;;;;;;;;1846454;75;26310;-36
2022/02/06 13:15:38;;;;;;;3.62;2.12;;;;;;;;;;1856639;75;26371;-38
2022/02/06 13:18:13;;;;;;;4.03;2.20;;;;;;;;;;1855727;75;26345;-38
2022/02/06 13:23:25;;;;;;;3.25;2.58;;;;;;;;;;1860458;75;26292;-37
2022/02/06 13:28:45;;;;;;;6.40;3.20;;;;;;;;;;1853135;75;26296;-36
2022/02/06 13:36:21;;;;;;;7.08;3.33;;;;;;;;;;1873996;75;26701;-38
2022/02/06 13:38:38;;;;;;;4.17;2.98;;;;;;;;;;1857887;76;26231;-38
2022/02/06 13:41:13;;;;;;;4.37;3.35;;;;;;;;;;1862324;75;26713;-39
2022/02/06 13:43:41;;;;;;;6.67;3.05;;;;;;;;;;1842261;75;26713;-38
2022/02/06 13:46:13;;;;;;;4.40;3.10;;;;;;;;;;1853238;76;26745;-38
2022/02/06 13:48:40;;;;;;;5.92;3.25;;;;;;;;;;1846421;76;26299;-37
2022/02/06 13:51:09;;;;;;;5.65;3.02;;;;;;;;;;1851548;75;26267;-38
2022/02/06 13:53:37;;;;;;;3.58;2.90;;;;;;;;;;1859010;75;26265;-37
2022/02/06 13:56:09;;;;;;;5.37;2.83;;;;;;;;;;1838853;75;26558;-39
2022/02/06 13:58:35;;;;;;;4.92;2.80;;;;;;;;;;1854951;75;26304;-37
2022/02/06 14:01:03;;;;;;;4.40;2.65;;;;;;;;;;1849296;75;26389;-37
2022/02/06 14:03:41;;;;;;;5.67;2.50;;;;;;;;;;1850876;75;26326;-38
2022/02/06 14:06:09;;;;;;;4.25;2.58;;;;;;;;;;1854313;75;26353;-40
2022/02/06 14:08:38;;;;;;;3.27;2.33;;;;;;;;;;1853042;75;26648;-39
2022/02/06 14:11:15;;;;;;;2.55;2.05;;;;;;;;;;1850543;75;25300;-38
2022/02/06 14:13:37;;;;;;;4.25;2.50;;;;;;;;;;1854977;75;25345;-37
2022/02/06 14:16:07;;;;;;;3.55;2.40;;;;;;;;;;1844871;75;26288;-39
2022/02/06 14:18:36;;;;;;;6.70;2.40;;;;;;;;;;1837846;75;26433;-37
2022/02/06 14:21:03;;;;;;;5.45;2.30;;;;;;;;;;1846278;75;26278;-37
2022/02/06 14:23:31;;;;;;;5.12;1.92;;;;;;;;;;1849881;75;26303;-37
2022/02/06 14:25:59;;;;;;;4.33;2.47;;;;;;;;;;1843256;75;26275;-39
2022/02/06 14:28:27;;;;;;;2.42;1.85;;;;;;;;;;1836304;76;26304;-37
2022/02/06 14:30:54;;;;;;;2.52;1.90;;;;;;;;;;1840591;75;26212;-37
2022/02/06 14:33:23;;;;;;;2.87;1.85;;;;;;;;;;1847240;77;26204;-37
2022/02/06 14:36:00;;;;;;;1.90;1.80;;;;;;;;;;1837294;76;25784;-37
2022/02/06 14:43:57;;;;;;;2.65;1.77;;;;;;;;;;1856571;75;26339;-38
2022/02/06 14:46:25;;;;;;;1.95;1.65;;;;;;;;;;1845776;75;26271;-38
2022/02/06 14:48:54;;;;;;;2.00;1.80;;;;;;;;;;1849910;75;27316;-39
2022/02/06 14:51:23;;;;;;;2.25;1.30;;;;;;;;;;1849011;76;26353;-38
2022/02/06 14:53:58;;;;;;;2.30;1.42;;;;;;;;;;1844155;75;26382;-37
2022/02/06 14:56:19;;;;;;;1.60;1.50;;;;;;;;;;1850120;75;26223;-37
2022/02/06 14:58:47;;;;;;;1.22;1.12;;;;;;;;;;1854181;75;26260;-38
2022/02/06 15:01:14;;;;;;;1.80;1.40;;;;;;;;;;1850881;75;26264;-38
2022/02/06 15:03:41;;;;;;;1.67;1.52;;;;;;;;;;1852874;76;26314;-38
2022/02/06 15:06:08;;;;;;;1.85;1.30;;;;;;;;;;1840118;76;26279;-38
2022/02/06 15:08:36;;;;;;;2.37;1.32;;;;;;;;;;1848987;76;26282;-38
2022/02/06 15:11:03;;;;;;;1.50;1.30;;;;;;;;;;1848703;76;26284;-37
2022/02/06 15:13:33;;;;;;;1.62;1.17;;;;;;;;;;1852436;75;25942;-37
2022/02/06 15:16:06;;;;;;;11.45;2.30;;;;;;;;;;1848940;75;26839;-37
2022/02/06 15:18:37;;;;;;;2.65;1.40;;;;;;;;;;1846672;75;26717;-37
2022/02/06 15:21:05;;;;;;;1.62;0.98;;;;;;;;;;1846684;76;26275;-37
2022/02/06 15:23:32;;;;;;;2.42;1.22;;;;;;;;;;1855742;76;26284;-39
2022/02/06 15:26:00;;;;;;;1.55;1.20;;;;;;;;;;1853423;76;26763;-37
2022/02/06 15:28:27;;;;;;;1.75;0.90;;;;;;;;;;1861103;76;26302;-39
2022/02/06 15:30:54;;;;;;;1.80;1.20;;;;;;;;;;1862352;76;26200;-38
2022/02/06 15:33:22;;;;;;;1.15;1.05;;;;;;;;;;1864352;75;25789;-38
2022/02/06 15:35:50;;;;;;;1.15;1.00;;;;;;;;;;1859271;75;26897;-37
2022/02/06 15:38:21;;;;;;;2.17;1.15;;;;;;;;;;1850629;75;26861;-37
2022/02/06 15:40:50;;;;;;;1.17;1.07;;;;;;;;;;1858372;76;26389;-38
2022/02/06 15:43:18;;;;;;;0.88;0.88;;;;;;;;;;1858863;75;26280;-38
2022/02/06 15:45:45;;;;;;;1.37;0.82;;;;;;;;;;1870325;75;26778;-37
2022/02/06 15:48:13;;;;;;;0.88;0.85;;;;;;;;;;1870638;76;26253;-38
2022/02/06 15:50:40;;;;;;;0.80;0.78;;;;;;;;;;1858187;76;25683;-39
2022/02/06 15:53:07;;;;;;;1.37;1.00;;;;;;;;;;1859332;76;26724;-39
2022/02/06 15:55:35;;;;;;;1.95;0.90;;;;;;;;;;1853193;75;26269;-37
2022/02/06 15:58:02;;;;;;;1.20;0.88;;;;;;;;;;1862985;75;26276;-38
2022/02/06 16:00:29;;;;;;;0.80;0.75;;;;;;;;;;1868101;76;27026;-37
2022/02/06 16:02:57;;;;;;;1.25;0.80;;;;;;;;;;1865245;76;26839;-39
2022/02/06 16:05:24;;;;;;;2.15;1.10;;;;;;;;;;1866987;76;26286;-40
2022/02/06 16:07:51;;;;;;;0.80;0.80;;;;;;;;;;1870125;76;26273;-39
2022/02/06 16:10:20;;;;;;;0.68;0.68;;;;;;;;;;1865199;76;26271;-38
2022/02/06 16:12:48;;;;;;;0.70;0.70;;;;;;;;;;1862730;76;26777;-38
2022/02/06 16:15:15;;;;;;;1.05;0.78;;;;;;;;;;1855517;75;26314;-39
2022/02/06 16:17:43;;;;;;;0.80;0.80;;;;;;;;;;1864082;76;25715;-38
2022/02/06 16:20:13;;;;;;;0.78;0.78;;;;;;;;;;1859448;76;26710;-40
2022/02/06 16:22:40;;;;;;;0.72;0.72;;;;;;;;;;1857736;76;26326;-38
2022/02/06 16:25:09;;;;;;;1.57;0.70;;;;;;;;;;1863722;76;26240;-41
2022/02/06 16:27:36;;;;;;;0.50;0.50;;;;;;;;;;1857235;76;27460;-37
2022/02/06 16:30:04;;;;;;;1.10;0.68;;;;;;;;;;1858374;76;26822;-37
2022/02/06 16:32:31;;;;;;;0.70;0.70;;;;;;;;;;1859962;76;27020;-37
2022/02/06 16:34:59;;;;;;;1.02;0.60;;;;;;;;;;1867637;76;26291;-37
2022/02/06 16:37:26;;;;;;;0.60;0.60;;;;;;;;;;1862546;77;26295;-39
2022/02/06 16:39:54;;;;;;;0.53;0.53;;;;;;;;;;1856534;75;25619;-38
2022/02/06 16:42:22;;;;;;;0.90;0.50;;;;;;;;;;1852085;76;26821;-37
2022/02/06 16:44:49;;;;;;;0.40;0.40;;;;;;;;;;1858791;77;26228;-37
2022/02/06 16:47:17;;;;;;;0.55;0.55;;;;;;;;;;1866307;76;26882;-39
2022/02/06 16:49:44;;;;;;;0.78;0.72;;;;;;;;;;1859527;75;25690;-37
2022/02/06 16:52:12;;;;;;;0.55;0.55;;;;;;;;;;1858126;77;26296;-39
2022/02/06 16:54:40;;;;;;;1.07;0.50;;;;;;;;;;1850752;76;26268;-37
2022/02/06 16:57:07;;;;;;;1.70;0.57;;;;;;;;;;1855235;75;26377;-38
2022/02/06 16:59:35;;;;;;;1.65;0.70;;;;;;;;;;1848553;75;26290;-37
2022/02/06 17:02:03;;;;;;;1.52;0.40;;;;;;;;;;1858942;75;26286;-37
2022/02/06 17:04:31;;;;;;;0.55;0.55;;;;;;;;;;1857115;77;26433;-39
2022/02/06 17:06:58;;;;;;;0.50;0.50;;;;;;;;;;1856423;76;26282;-39
2022/02/06 17:09:26;;;;;;;0.50;0.50;;;;;;;;;;1854764;76;27209;-41
2022/02/06 17:11:54;;;;;;;3.72;1.10;;;;;;;;;;1861147;75;26336;-39